sensor_id;sensor_type;location;lat;lon;timestamp;P1;durP1;ratioP1;P2;durP2;ratioP2
37657;SDS011;23500;53.268;8.308;2022-10-16T00:01:17;7.80;;;5.78;;
37657;SDS011;23500;53.268;8.308;2022-10-16T00:03:44;9.23;;;5.57;;
37657;SDS011;23500;53.268;8.308;2022-10-16T00:06:11;8.60;;;5.78;;
37657;SDS011;23500;53.268;8.308;2022-10-16T00:08:37;8.45;;;5.45;;
37657;SDS011;23500;53.268;8.308;2022-10-16T00:11:07;8.93;;;5.57;;
37657;SDS011;23500;53.268;8.308;2022-10-16T00:13:41;7.68;;;5.50;;
37657;SDS011;23500;53.268;8.308;2022-10-16T00:16:09;8.63;;;5.40;;
37657;SDS011;23500;53.268;8.308;2022-10-16T00:18:36;7.68;;;5.72;;
37657;SDS011;23500;53.268;8.308;2022-10-16T00:21:04;10.95;;;5.53;;
37657;SDS011;23500;53.268;8.308;2022-10-16T00:23:32;6.40;;;5.10;;
37657;SDS011;23500;53.268;8.308;2022-10-16T00:26:00;8.02;;;6.15;;
37657;SDS011;23500;53.268;8.308;2022-10-16T00:28:28;8.30;;;5.10;;
37657;SDS011;23500;53.268;8.308;2022-10-16T00:30:54;7.80;;;5.32;;
37657;SDS011;23500;53.268;8.308;2022-10-16T00:33:20;6.25;;;4.82;;
37657;SDS011;23500;53.268;8.308;2022-10-16T00:35:46;7.65;;;5.15;;
37657;SDS011;23500;53.268;8.308;2022-10-16T00:38:12;8.15;;;5.40;;
37657;SDS011;23500;53.268;8.308;2022-10-16T00:40:38;7.07;;;4.97;;
37657;SDS011;23500;53.268;8.308;2022-10-16T00:43:09;7.07;;;5.38;;
37657;SDS011;23500;53.268;8.308;2022-10-16T00:45:55;7.25;;;5.30;;
37657;SDS011;23500;53.268;8.308;2022-10-16T00:48:21;6.47;;;5.15;;
37657;SDS011;23500;53.268;8.308;2022-10-16T00:50:47;6.32;;;5.10;;
37657;SDS011;23500;53.268;8.308;2022-10-16T00:53:13;7.47;;;5.55;;
37657;SDS011;23500;53.268;8.308;2022-10-16T00:55:40;6.55;;;4.93;;
37657;SDS011;23500;53.268;8.308;2022-10-16T00:58:06;7.90;;;5.45;;
37657;SDS011;23500;53.268;8.308;2022-10-16T01:00:32;7.15;;;4.93;;
37657;SDS011;23500;53.268;8.308;2022-10-16T01:02:59;6.55;;;5.38;;
37657;SDS011;23500;53.268;8.308;2022-10-16T01:05:30;7.13;;;4.90;;
37657;SDS011;23500;53.268;8.308;2022-10-16T01:13:18;6.97;;;4.93;;
37657;SDS011;23500;53.268;8.308;2022-10-16T01:21:02;9.30;;;5.28;;
37657;SDS011;23500;53.268;8.308;2022-10-16T01:23:41;7.32;;;5.55;;
37657;SDS011;23500;53.268;8.308;2022-10-16T01:31:19;6.95;;;5.05;;
37657;SDS011;23500;53.268;8.308;2022-10-16T01:36:39;7.30;;;5.20;;
37657;SDS011;23500;53.268;8.308;2022-10-16T01:39:12;6.68;;;5.03;;
37657;SDS011;23500;53.268;8.308;2022-10-16T01:41:43;6.28;;;4.80;;
37657;SDS011;23500;53.268;8.308;2022-10-16T01:44:15;6.60;;;5.10;;
37657;SDS011;23500;53.268;8.308;2022-10-16T01:46:46;5.53;;;4.47;;
37657;SDS011;23500;53.268;8.308;2022-10-16T01:49:15;7.68;;;4.85;;
37657;SDS011;23500;53.268;8.308;2022-10-16T01:51:43;5.75;;;5.15;;
37657;SDS011;23500;53.268;8.308;2022-10-16T01:54:12;7.75;;;4.97;;
37657;SDS011;23500;53.268;8.308;2022-10-16T01:56:40;7.40;;;5.00;;
37657;SDS011;23500;53.268;8.308;2022-10-16T01:59:11;8.48;;;5.25;;
37657;SDS011;23500;53.268;8.308;2022-10-16T02:01:40;8.10;;;5.00;;
37657;SDS011;23500;53.268;8.308;2022-10-16T02:04:11;6.05;;;4.63;;
37657;SDS011;23500;53.268;8.308;2022-10-16T02:06:47;7.35;;;5.03;;
37657;SDS011;23500;53.268;8.308;2022-10-16T02:09:13;8.00;;;4.70;;
37657;SDS011;23500;53.268;8.308;2022-10-16T02:11:41;7.18;;;5.18;;
37657;SDS011;23500;53.268;8.308;2022-10-16T02:14:08;5.97;;;4.47;;
37657;SDS011;23500;53.268;8.308;2022-10-16T02:16:44;6.28;;;4.68;;
37657;SDS011;23500;53.268;8.308;2022-10-16T02:19:15;6.63;;;4.57;;
37657;SDS011;23500;53.268;8.308;2022-10-16T02:30:23;5.82;;;4.60;;
37657;SDS011;23500;53.268;8.308;2022-10-16T02:32:53;5.40;;;4.53;;
37657;SDS011;23500;53.268;8.308;2022-10-16T02:35:21;6.40;;;4.60;;
37657;SDS011;23500;53.268;8.308;2022-10-16T02:37:48;5.25;;;4.05;;
37657;SDS011;23500;53.268;8.308;2022-10-16T02:40:15;5.65;;;4.40;;
37657;SDS011;23500;53.268;8.308;2022-10-16T02:42:42;5.65;;;4.47;;
37657;SDS011;23500;53.268;8.308;2022-10-16T02:45:09;6.32;;;4.95;;
37657;SDS011;23500;53.268;8.308;2022-10-16T02:47:36;6.05;;;4.60;;
37657;SDS011;23500;53.268;8.308;2022-10-16T02:50:02;7.65;;;4.35;;
37657;SDS011;23500;53.268;8.308;2022-10-16T02:52:28;5.25;;;4.57;;
37657;SDS011;23500;53.268;8.308;2022-10-16T02:54:54;6.55;;;4.35;;
37657;SDS011;23500;53.268;8.308;2022-10-16T02:57:19;4.95;;;4.25;;
37657;SDS011;23500;53.268;8.308;2022-10-16T02:59:45;5.30;;;4.68;;
37657;SDS011;23500;53.268;8.308;2022-10-16T03:02:11;5.57;;;4.30;;
37657;SDS011;23500;53.268;8.308;2022-10-16T03:04:36;6.45;;;4.38;;
37657;SDS011;23500;53.268;8.308;2022-10-16T03:07:02;5.90;;;4.78;;
37657;SDS011;23500;53.268;8.308;2022-10-16T03:09:28;6.10;;;4.68;;
37657;SDS011;23500;53.268;8.308;2022-10-16T03:11:53;5.57;;;4.30;;
37657;SDS011;23500;53.268;8.308;2022-10-16T03:14:19;5.93;;;4.10;;
37657;SDS011;23500;53.268;8.308;2022-10-16T03:16:45;5.15;;;4.22;;
37657;SDS011;23500;53.268;8.308;2022-10-16T03:19:10;6.55;;;4.55;;
37657;SDS011;23500;53.268;8.308;2022-10-16T03:21:36;7.93;;;4.72;;
37657;SDS011;23500;53.268;8.308;2022-10-16T03:24:02;7.32;;;5.18;;
37657;SDS011;23500;53.268;8.308;2022-10-16T03:26:27;7.18;;;4.22;;
37657;SDS011;23500;53.268;8.308;2022-10-16T03:28:53;5.43;;;4.28;;
37657;SDS011;23500;53.268;8.308;2022-10-16T03:31:18;6.43;;;4.70;;
37657;SDS011;23500;53.268;8.308;2022-10-16T03:33:44;5.40;;;4.38;;
37657;SDS011;23500;53.268;8.308;2022-10-16T03:36:10;5.18;;;4.03;;
37657;SDS011;23500;53.268;8.308;2022-10-16T03:38:36;4.65;;;4.10;;
37657;SDS011;23500;53.268;8.308;2022-10-16T03:41:01;6.50;;;4.38;;
37657;SDS011;23500;53.268;8.308;2022-10-16T03:43:27;5.53;;;4.47;;
37657;SDS011;23500;53.268;8.308;2022-10-16T03:45:52;5.28;;;4.20;;
37657;SDS011;23500;53.268;8.308;2022-10-16T03:48:19;5.03;;;4.13;;
37657;SDS011;23500;53.268;8.308;2022-10-16T03:50:45;5.60;;;4.10;;
37657;SDS011;23500;53.268;8.308;2022-10-16T03:53:13;5.07;;;4.28;;
37657;SDS011;23500;53.268;8.308;2022-10-16T03:55:40;4.60;;;4.00;;
37657;SDS011;23500;53.268;8.308;2022-10-16T03:58:07;5.63;;;4.20;;
37657;SDS011;23500;53.268;8.308;2022-10-16T04:00:32;4.50;;;3.97;;
37657;SDS011;23500;53.268;8.308;2022-10-16T04:02:59;5.28;;;4.18;;
37657;SDS011;23500;53.268;8.308;2022-10-16T04:05:25;4.60;;;3.95;;
37657;SDS011;23500;53.268;8.308;2022-10-16T04:07:50;4.80;;;3.88;;
37657;SDS011;23500;53.268;8.308;2022-10-16T04:10:16;7.18;;;4.22;;
37657;SDS011;23500;53.268;8.308;2022-10-16T04:12:42;5.55;;;4.45;;
37657;SDS011;23500;53.268;8.308;2022-10-16T04:15:08;5.22;;;4.10;;
37657;SDS011;23500;53.268;8.308;2022-10-16T04:17:33;5.22;;;3.90;;
37657;SDS011;23500;53.268;8.308;2022-10-16T04:19:59;5.18;;;4.05;;
37657;SDS011;23500;53.268;8.308;2022-10-16T04:22:25;5.10;;;3.95;;
37657;SDS011;23500;53.268;8.308;2022-10-16T04:24:50;6.30;;;4.22;;
37657;SDS011;23500;53.268;8.308;2022-10-16T04:27:16;5.72;;;4.03;;
37657;SDS011;23500;53.268;8.308;2022-10-16T04:29:41;4.95;;;3.83;;
37657;SDS011;23500;53.268;8.308;2022-10-16T04:32:08;6.05;;;3.70;;
37657;SDS011;23500;53.268;8.308;2022-10-16T04:34:34;5.97;;;4.38;;
37657;SDS011;23500;53.268;8.308;2022-10-16T04:36:59;4.45;;;3.75;;
37657;SDS011;23500;53.268;8.308;2022-10-16T04:39:25;5.85;;;4.07;;
37657;SDS011;23500;53.268;8.308;2022-10-16T04:41:51;4.28;;;3.67;;
37657;SDS011;23500;53.268;8.308;2022-10-16T04:44:16;4.72;;;3.63;;
37657;SDS011;23500;53.268;8.308;2022-10-16T04:46:42;4.93;;;3.40;;
37657;SDS011;23500;53.268;8.308;2022-10-16T04:49:09;5.15;;;3.55;;
37657;SDS011;23500;53.268;8.308;2022-10-16T04:51:35;4.55;;;3.97;;
37657;SDS011;23500;53.268;8.308;2022-10-16T04:54:00;5.18;;;3.80;;
37657;SDS011;23500;53.268;8.308;2022-10-16T04:56:26;4.32;;;3.42;;
37657;SDS011;23500;53.268;8.308;2022-10-16T04:58:52;5.30;;;3.70;;
37657;SDS011;23500;53.268;8.308;2022-10-16T05:01:18;5.45;;;3.80;;
37657;SDS011;23500;53.268;8.308;2022-10-16T05:03:43;4.68;;;3.95;;
37657;SDS011;23500;53.268;8.308;2022-10-16T05:06:09;5.95;;;3.80;;
37657;SDS011;23500;53.268;8.308;2022-10-16T05:08:35;4.70;;;3.80;;
37657;SDS011;23500;53.268;8.308;2022-10-16T05:11:01;4.78;;;3.83;;
37657;SDS011;23500;53.268;8.308;2022-10-16T05:13:27;4.50;;;3.55;;
37657;SDS011;23500;53.268;8.308;2022-10-16T05:15:52;5.75;;;3.70;;
37657;SDS011;23500;53.268;8.308;2022-10-16T05:18:18;5.05;;;3.90;;
37657;SDS011;23500;53.268;8.308;2022-10-16T05:20:43;6.18;;;3.92;;
37657;SDS011;23500;53.268;8.308;2022-10-16T05:23:09;3.97;;;3.50;;
37657;SDS011;23500;53.268;8.308;2022-10-16T05:25:36;5.22;;;3.90;;
37657;SDS011;23500;53.268;8.308;2022-10-16T05:28:02;5.18;;;3.88;;
37657;SDS011;23500;53.268;8.308;2022-10-16T05:30:28;4.07;;;3.20;;
37657;SDS011;23500;53.268;8.308;2022-10-16T05:32:54;5.05;;;3.40;;
37657;SDS011;23500;53.268;8.308;2022-10-16T05:35:20;5.03;;;3.60;;
37657;SDS011;23500;53.268;8.308;2022-10-16T05:37:45;4.78;;;3.88;;
37657;SDS011;23500;53.268;8.308;2022-10-16T05:40:11;4.38;;;3.53;;
37657;SDS011;23500;53.268;8.308;2022-10-16T05:42:38;5.00;;;3.63;;
37657;SDS011;23500;53.268;8.308;2022-10-16T05:45:04;4.72;;;3.80;;
37657;SDS011;23500;53.268;8.308;2022-10-16T05:47:31;4.30;;;3.72;;
37657;SDS011;23500;53.268;8.308;2022-10-16T05:49:57;4.40;;;3.75;;
37657;SDS011;23500;53.268;8.308;2022-10-16T05:52:23;4.20;;;3.35;;
37657;SDS011;23500;53.268;8.308;2022-10-16T05:54:48;4.45;;;3.35;;
37657;SDS011;23500;53.268;8.308;2022-10-16T05:57:14;4.65;;;3.33;;
37657;SDS011;23500;53.268;8.308;2022-10-16T05:59:40;4.03;;;3.35;;
37657;SDS011;23500;53.268;8.308;2022-10-16T06:02:07;4.22;;;3.22;;
37657;SDS011;23500;53.268;8.308;2022-10-16T06:04:37;3.60;;;3.20;;
37657;SDS011;23500;53.268;8.308;2022-10-16T06:07:03;4.65;;;3.42;;
37657;SDS011;23500;53.268;8.308;2022-10-16T06:09:28;4.65;;;3.22;;
37657;SDS011;23500;53.268;8.308;2022-10-16T06:11:54;4.95;;;3.42;;
37657;SDS011;23500;53.268;8.308;2022-10-16T06:14:19;4.95;;;3.50;;
37657;SDS011;23500;53.268;8.308;2022-10-16T06:16:45;3.70;;;3.28;;
37657;SDS011;23500;53.268;8.308;2022-10-16T06:19:11;4.15;;;3.25;;
37657;SDS011;23500;53.268;8.308;2022-10-16T06:21:36;4.10;;;3.35;;
37657;SDS011;23500;53.268;8.308;2022-10-16T06:24:02;4.30;;;3.33;;
37657;SDS011;23500;53.268;8.308;2022-10-16T06:26:29;3.85;;;3.00;;
37657;SDS011;23500;53.268;8.308;2022-10-16T06:28:55;5.40;;;3.30;;
37657;SDS011;23500;53.268;8.308;2022-10-16T06:31:22;4.00;;;3.30;;
37657;SDS011;23500;53.268;8.308;2022-10-16T06:33:52;5.00;;;3.55;;
37657;SDS011;23500;53.268;8.308;2022-10-16T06:36:19;4.20;;;3.42;;
37657;SDS011;23500;53.268;8.308;2022-10-16T06:38:45;4.97;;;3.60;;
37657;SDS011;23500;53.268;8.308;2022-10-16T06:41:12;3.38;;;3.08;;
37657;SDS011;23500;53.268;8.308;2022-10-16T06:43:39;4.68;;;3.35;;
37657;SDS011;23500;53.268;8.308;2022-10-16T06:46:05;3.97;;;3.03;;
37657;SDS011;23500;53.268;8.308;2022-10-16T06:48:33;4.57;;;3.47;;
37657;SDS011;23500;53.268;8.308;2022-10-16T06:51:03;4.55;;;3.30;;
37657;SDS011;23500;53.268;8.308;2022-10-16T06:53:32;3.42;;;2.90;;
37657;SDS011;23500;53.268;8.308;2022-10-16T06:58:36;3.25;;;2.75;;
37657;SDS011;23500;53.268;8.308;2022-10-16T07:01:02;3.67;;;2.70;;
37657;SDS011;23500;53.268;8.308;2022-10-16T07:03:28;3.60;;;3.13;;
37657;SDS011;23500;53.268;8.308;2022-10-16T07:05:54;2.80;;;2.50;;
37657;SDS011;23500;53.268;8.308;2022-10-16T07:08:20;3.15;;;2.70;;
37657;SDS011;23500;53.268;8.308;2022-10-16T07:10:45;5.93;;;2.70;;
37657;SDS011;23500;53.268;8.308;2022-10-16T07:13:11;3.13;;;2.65;;
37657;SDS011;23500;53.268;8.308;2022-10-16T07:15:39;3.50;;;3.05;;
37657;SDS011;23500;53.268;8.308;2022-10-16T07:18:05;2.97;;;2.50;;
37657;SDS011;23500;53.268;8.308;2022-10-16T07:20:31;3.55;;;2.50;;
37657;SDS011;23500;53.268;8.308;2022-10-16T07:22:57;3.97;;;2.80;;
37657;SDS011;23500;53.268;8.308;2022-10-16T07:25:22;3.38;;;2.42;;
37657;SDS011;23500;53.268;8.308;2022-10-16T07:27:48;3.30;;;2.40;;
37657;SDS011;23500;53.268;8.308;2022-10-16T07:30:14;3.50;;;2.50;;
37657;SDS011;23500;53.268;8.308;2022-10-16T07:32:39;3.53;;;2.70;;
37657;SDS011;23500;53.268;8.308;2022-10-16T07:35:05;3.60;;;2.65;;
37657;SDS011;23500;53.268;8.308;2022-10-16T07:37:31;3.42;;;2.72;;
37657;SDS011;23500;53.268;8.308;2022-10-16T07:39:57;4.55;;;3.00;;
37657;SDS011;23500;53.268;8.308;2022-10-16T07:42:22;3.67;;;2.50;;
37657;SDS011;23500;53.268;8.308;2022-10-16T07:44:48;3.45;;;2.50;;
37657;SDS011;23500;53.268;8.308;2022-10-16T07:47:13;3.28;;;2.60;;
37657;SDS011;23500;53.268;8.308;2022-10-16T07:49:39;3.08;;;2.78;;
37657;SDS011;23500;53.268;8.308;2022-10-16T07:52:05;3.88;;;2.65;;
37657;SDS011;23500;53.268;8.308;2022-10-16T07:54:30;3.28;;;2.75;;
37657;SDS011;23500;53.268;8.308;2022-10-16T07:56:56;3.10;;;2.80;;
37657;SDS011;23500;53.268;8.308;2022-10-16T07:59:22;4.40;;;2.63;;
37657;SDS011;23500;53.268;8.308;2022-10-16T08:01:48;3.38;;;2.50;;
37657;SDS011;23500;53.268;8.308;2022-10-16T08:04:14;3.22;;;2.40;;
37657;SDS011;23500;53.268;8.308;2022-10-16T08:06:40;3.65;;;2.50;;
37657;SDS011;23500;53.268;8.308;2022-10-16T08:09:06;3.35;;;2.42;;
37657;SDS011;23500;53.268;8.308;2022-10-16T08:11:32;4.20;;;2.70;;
37657;SDS011;23500;53.268;8.308;2022-10-16T08:13:58;4.47;;;2.58;;
37657;SDS011;23500;53.268;8.308;2022-10-16T08:16:24;3.30;;;2.20;;
37657;SDS011;23500;53.268;8.308;2022-10-16T08:18:49;2.90;;;2.42;;
37657;SDS011;23500;53.268;8.308;2022-10-16T08:21:17;3.65;;;2.63;;
37657;SDS011;23500;53.268;8.308;2022-10-16T08:23:44;2.72;;;2.30;;
37657;SDS011;23500;53.268;8.308;2022-10-16T08:26:10;3.67;;;2.63;;
37657;SDS011;23500;53.268;8.308;2022-10-16T08:28:36;3.20;;;2.38;;
37657;SDS011;23500;53.268;8.308;2022-10-16T08:31:06;2.10;;;1.90;;
37657;SDS011;23500;53.268;8.308;2022-10-16T08:33:33;4.50;;;2.67;;
37657;SDS011;23500;53.268;8.308;2022-10-16T08:36:00;2.55;;;2.30;;
37657;SDS011;23500;53.268;8.308;2022-10-16T08:38:26;3.50;;;2.15;;
37657;SDS011;23500;53.268;8.308;2022-10-16T08:40:51;3.25;;;1.92;;
37657;SDS011;23500;53.268;8.308;2022-10-16T08:43:30;2.15;;;1.95;;
37657;SDS011;23500;53.268;8.308;2022-10-16T08:48:51;3.53;;;1.92;;
37657;SDS011;23500;53.268;8.308;2022-10-16T08:51:23;2.28;;;1.90;;
37657;SDS011;23500;53.268;8.308;2022-10-16T08:53:58;2.20;;;1.98;;
37657;SDS011;23500;53.268;8.308;2022-10-16T08:56:29;3.65;;;1.90;;
37657;SDS011;23500;53.268;8.308;2022-10-16T08:58:57;2.55;;;2.00;;
37657;SDS011;23500;53.268;8.308;2022-10-16T09:01:24;2.92;;;2.17;;
37657;SDS011;23500;53.268;8.308;2022-10-16T09:12:36;2.35;;;2.10;;
37657;SDS011;23500;53.268;8.308;2022-10-16T09:15:07;2.28;;;1.75;;
37657;SDS011;23500;53.268;8.308;2022-10-16T09:20:43;2.22;;;1.58;;
37657;SDS011;23500;53.268;8.308;2022-10-16T09:23:13;4.10;;;1.98;;
37657;SDS011;23500;53.268;8.308;2022-10-16T09:25:43;3.10;;;1.80;;
37657;SDS011;23500;53.268;8.308;2022-10-16T09:28:13;2.58;;;1.73;;
37657;SDS011;23500;53.268;8.308;2022-10-16T09:30:40;2.97;;;2.00;;
37657;SDS011;23500;53.268;8.308;2022-10-16T09:33:06;2.42;;;1.73;;
37657;SDS011;23500;53.268;8.308;2022-10-16T09:35:38;3.38;;;1.65;;
37657;SDS011;23500;53.268;8.308;2022-10-16T09:38:05;2.10;;;1.80;;
37657;SDS011;23500;53.268;8.308;2022-10-16T09:40:32;4.18;;;1.60;;
37657;SDS011;23500;53.268;8.308;2022-10-16T09:43:06;3.90;;;1.70;;
37657;SDS011;23500;53.268;8.308;2022-10-16T09:45:41;3.22;;;1.65;;
37657;SDS011;23500;53.268;8.308;2022-10-16T09:48:10;2.45;;;1.48;;
37657;SDS011;23500;53.268;8.308;2022-10-16T09:50:37;2.70;;;1.70;;
37657;SDS011;23500;53.268;8.308;2022-10-16T09:53:13;2.53;;;1.50;;
37657;SDS011;23500;53.268;8.308;2022-10-16T09:55:49;1.98;;;1.40;;
37657;SDS011;23500;53.268;8.308;2022-10-16T09:58:16;2.50;;;1.20;;
37657;SDS011;23500;53.268;8.308;2022-10-16T10:00:42;4.22;;;1.50;;
37657;SDS011;23500;53.268;8.308;2022-10-16T10:03:21;2.72;;;1.35;;
37657;SDS011;23500;53.268;8.308;2022-10-16T10:06:04;3.65;;;1.27;;
37657;SDS011;23500;53.268;8.308;2022-10-16T10:08:59;2.50;;;1.27;;
37657;SDS011;23500;53.268;8.308;2022-10-16T10:14:19;1.27;;;1.02;;
37657;SDS011;23500;53.268;8.308;2022-10-16T10:16:47;2.17;;;1.10;;
37657;SDS011;23500;53.268;8.308;2022-10-16T10:19:17;2.00;;;1.38;;
37657;SDS011;23500;53.268;8.308;2022-10-16T10:21:47;5.80;;;1.20;;
37657;SDS011;23500;53.268;8.308;2022-10-16T10:24:15;1.85;;;1.10;;
37657;SDS011;23500;53.268;8.308;2022-10-16T10:26:54;1.75;;;1.35;;
37657;SDS011;23500;53.268;8.308;2022-10-16T10:32:08;3.17;;;1.30;;
37657;SDS011;23500;53.268;8.308;2022-10-16T10:34:49;2.03;;;1.20;;
37657;SDS011;23500;53.268;8.308;2022-10-16T10:42:56;1.92;;;1.17;;
37657;SDS011;23500;53.268;8.308;2022-10-16T10:45:48;2.72;;;1.20;;
37657;SDS011;23500;53.268;8.308;2022-10-16T10:51:40;2.58;;;1.20;;
37657;SDS011;23500;53.268;8.308;2022-10-16T10:54:38;2.67;;;1.17;;
37657;SDS011;23500;53.268;8.308;2022-10-16T11:08:00;5.63;;;1.52;;
37657;SDS011;23500;53.268;8.308;2022-10-16T11:10:37;4.03;;;1.08;;
37657;SDS011;23500;53.268;8.308;2022-10-16T11:13:28;4.30;;;1.13;;
37657;SDS011;23500;53.268;8.308;2022-10-16T11:16:02;2.97;;;1.20;;
37657;SDS011;23500;53.268;8.308;2022-10-16T11:19:19;3.20;;;1.00;;
37657;SDS011;23500;53.268;8.308;2022-10-16T11:21:30;5.63;;;1.38;;
37657;SDS011;23500;53.268;8.308;2022-10-16T11:24:04;2.38;;;1.38;;
37657;SDS011;23500;53.268;8.308;2022-10-16T11:26:39;3.15;;;0.95;;
37657;SDS011;23500;53.268;8.308;2022-10-16T11:29:13;2.58;;;1.25;;
37657;SDS011;23500;53.268;8.308;2022-10-16T11:31:51;2.20;;;1.20;;
37657;SDS011;23500;53.268;8.308;2022-10-16T11:37:21;2.20;;;1.20;;
37657;SDS011;23500;53.268;8.308;2022-10-16T11:39:52;3.90;;;1.30;;
37657;SDS011;23500;53.268;8.308;2022-10-16T11:42:26;2.08;;;1.10;;
37657;SDS011;23500;53.268;8.308;2022-10-16T11:47:39;2.78;;;1.00;;
37657;SDS011;23500;53.268;8.308;2022-10-16T11:55:42;2.85;;;1.00;;
37657;SDS011;23500;53.268;8.308;2022-10-16T11:58:13;3.55;;;1.27;;
37657;SDS011;23500;53.268;8.308;2022-10-16T12:08:33;3.88;;;1.20;;
37657;SDS011;23500;53.268;8.308;2022-10-16T12:11:20;2.88;;;1.30;;
37657;SDS011;23500;53.268;8.308;2022-10-16T12:14:59;4.88;;;1.58;;
37657;SDS011;23500;53.268;8.308;2022-10-16T12:17:01;3.63;;;1.42;;
37657;SDS011;23500;53.268;8.308;2022-10-16T12:20:01;3.17;;;1.45;;
37657;SDS011;23500;53.268;8.308;2022-10-16T12:22:47;4.00;;;1.38;;
37657;SDS011;23500;53.268;8.308;2022-10-16T12:28:19;3.45;;;1.77;;
37657;SDS011;23500;53.268;8.308;2022-10-16T12:30:57;5.13;;;1.80;;
37657;SDS011;23500;53.268;8.308;2022-10-16T12:33:39;3.00;;;1.30;;
37657;SDS011;23500;53.268;8.308;2022-10-16T12:36:12;2.17;;;1.73;;
37657;SDS011;23500;53.268;8.308;2022-10-16T12:38:48;4.22;;;1.73;;
37657;SDS011;23500;53.268;8.308;2022-10-16T12:43:55;4.75;;;1.55;;
37657;SDS011;23500;53.268;8.308;2022-10-16T12:46:23;3.35;;;1.80;;
37657;SDS011;23500;53.268;8.308;2022-10-16T12:49:06;4.57;;;1.80;;
37657;SDS011;23500;53.268;8.308;2022-10-16T12:53:58;3.13;;;1.40;;
37657;SDS011;23500;53.268;8.308;2022-10-16T12:56:26;4.07;;;1.70;;
37657;SDS011;23500;53.268;8.308;2022-10-16T12:58:59;5.20;;;1.92;;
37657;SDS011;23500;53.268;8.308;2022-10-16T13:04:40;7.13;;;2.30;;
37657;SDS011;23500;53.268;8.308;2022-10-16T13:12:55;6.38;;;2.35;;
37657;SDS011;23500;53.268;8.308;2022-10-16T13:16:02;4.78;;;2.15;;
37657;SDS011;23500;53.268;8.308;2022-10-16T13:19:22;6.40;;;2.47;;
37657;SDS011;23500;53.268;8.308;2022-10-16T13:21:53;5.93;;;2.17;;
37657;SDS011;23500;53.268;8.308;2022-10-16T13:27:56;9.77;;;2.10;;
37657;SDS011;23500;53.268;8.308;2022-10-16T13:30:26;5.18;;;1.95;;
37657;SDS011;23500;53.268;8.308;2022-10-16T13:33:01;6.13;;;2.25;;
37657;SDS011;23500;53.268;8.308;2022-10-16T13:35:36;3.50;;;1.60;;
37657;SDS011;23500;53.268;8.308;2022-10-16T13:38:06;5.47;;;2.17;;
37657;SDS011;23500;53.268;8.308;2022-10-16T13:40:36;6.05;;;1.98;;
37657;SDS011;23500;53.268;8.308;2022-10-16T13:43:12;4.50;;;1.95;;
37657;SDS011;23500;53.268;8.308;2022-10-16T13:45:38;4.97;;;1.98;;
37657;SDS011;23500;53.268;8.308;2022-10-16T13:48:04;4.63;;;2.28;;
37657;SDS011;23500;53.268;8.308;2022-10-16T13:50:33;5.35;;;1.80;;
37657;SDS011;23500;53.268;8.308;2022-10-16T13:53:14;4.18;;;2.15;;
37657;SDS011;23500;53.268;8.308;2022-10-16T13:55:40;4.10;;;1.70;;
37657;SDS011;23500;53.268;8.308;2022-10-16T13:58:15;4.22;;;1.77;;
37657;SDS011;23500;53.268;8.308;2022-10-16T14:00:42;6.10;;;1.83;;
37657;SDS011;23500;53.268;8.308;2022-10-16T14:03:29;3.60;;;1.85;;
37657;SDS011;23500;53.268;8.308;2022-10-16T14:05:57;6.35;;;2.10;;
37657;SDS011;23500;53.268;8.308;2022-10-16T14:08:26;4.57;;;1.92;;
37657;SDS011;23500;53.268;8.308;2022-10-16T14:10:54;5.68;;;2.25;;
37657;SDS011;23500;53.268;8.308;2022-10-16T14:13:45;2.85;;;1.48;;
37657;SDS011;23500;53.268;8.308;2022-10-16T14:16:15;4.57;;;2.00;;
37657;SDS011;23500;53.268;8.308;2022-10-16T14:18:44;4.25;;;1.80;;
37657;SDS011;23500;53.268;8.308;2022-10-16T14:21:15;5.95;;;1.80;;
37657;SDS011;23500;53.268;8.308;2022-10-16T14:23:41;5.30;;;1.75;;
37657;SDS011;23500;53.268;8.308;2022-10-16T14:28:34;2.35;;;1.30;;
37657;SDS011;23500;53.268;8.308;2022-10-16T14:31:01;4.18;;;1.67;;
37657;SDS011;23500;53.268;8.308;2022-10-16T14:33:40;4.10;;;1.83;;
37657;SDS011;23500;53.268;8.308;2022-10-16T14:36:11;4.90;;;1.77;;
37657;SDS011;23500;53.268;8.308;2022-10-16T14:38:39;5.10;;;1.75;;
37657;SDS011;23500;53.268;8.308;2022-10-16T14:41:13;4.63;;;1.63;;
37657;SDS011;23500;53.268;8.308;2022-10-16T14:43:40;4.47;;;1.80;;
37657;SDS011;23500;53.268;8.308;2022-10-16T14:46:14;6.93;;;1.85;;
37657;SDS011;23500;53.268;8.308;2022-10-16T14:48:46;5.82;;;1.77;;
37657;SDS011;23500;53.268;8.308;2022-10-16T14:51:15;5.55;;;1.85;;
37657;SDS011;23500;53.268;8.308;2022-10-16T14:53:42;4.13;;;1.52;;
37657;SDS011;23500;53.268;8.308;2022-10-16T14:56:18;5.60;;;1.88;;
37657;SDS011;23500;53.268;8.308;2022-10-16T14:58:46;5.25;;;1.65;;
37657;SDS011;23500;53.268;8.308;2022-10-16T15:01:12;6.10;;;1.58;;
37657;SDS011;23500;53.268;8.308;2022-10-16T15:03:38;4.95;;;1.85;;
37657;SDS011;23500;53.268;8.308;2022-10-16T15:06:03;3.15;;;1.70;;
37657;SDS011;23500;53.268;8.308;2022-10-16T15:08:36;5.25;;;1.80;;
37657;SDS011;23500;53.268;8.308;2022-10-16T15:11:02;4.13;;;1.90;;
37657;SDS011;23500;53.268;8.308;2022-10-16T15:13:28;4.10;;;1.50;;
37657;SDS011;23500;53.268;8.308;2022-10-16T15:15:53;4.35;;;1.90;;
37657;SDS011;23500;53.268;8.308;2022-10-16T15:18:19;4.43;;;1.55;;
37657;SDS011;23500;53.268;8.308;2022-10-16T15:20:45;3.58;;;1.75;;
37657;SDS011;23500;53.268;8.308;2022-10-16T15:23:20;5.43;;;2.03;;
37657;SDS011;23500;53.268;8.308;2022-10-16T15:25:47;3.42;;;1.45;;
37657;SDS011;23500;53.268;8.308;2022-10-16T15:28:15;3.85;;;1.70;;
37657;SDS011;23500;53.268;8.308;2022-10-16T15:30:42;4.78;;;1.80;;
37657;SDS011;23500;53.268;8.308;2022-10-16T15:33:14;4.95;;;1.73;;
37657;SDS011;23500;53.268;8.308;2022-10-16T15:35:41;3.15;;;1.60;;
37657;SDS011;23500;53.268;8.308;2022-10-16T15:38:11;3.25;;;1.58;;
37657;SDS011;23500;53.268;8.308;2022-10-16T15:40:38;4.40;;;1.80;;
37657;SDS011;23500;53.268;8.308;2022-10-16T15:43:03;3.60;;;1.48;;
37657;SDS011;23500;53.268;8.308;2022-10-16T15:45:29;5.22;;;1.83;;
37657;SDS011;23500;53.268;8.308;2022-10-16T15:47:55;3.55;;;1.83;;
37657;SDS011;23500;53.268;8.308;2022-10-16T15:50:20;2.10;;;1.33;;
37657;SDS011;23500;53.268;8.308;2022-10-16T15:52:46;2.55;;;1.58;;
37657;SDS011;23500;53.268;8.308;2022-10-16T15:55:12;2.60;;;1.55;;
37657;SDS011;23500;53.268;8.308;2022-10-16T15:57:39;3.63;;;1.80;;
37657;SDS011;23500;53.268;8.308;2022-10-16T16:00:16;3.20;;;1.58;;
37657;SDS011;23500;53.268;8.308;2022-10-16T16:02:48;5.72;;;1.60;;
37657;SDS011;23500;53.268;8.308;2022-10-16T16:05:16;3.33;;;1.40;;
37657;SDS011;23500;53.268;8.308;2022-10-16T16:07:41;3.80;;;1.77;;
37657;SDS011;23500;53.268;8.308;2022-10-16T16:10:08;3.47;;;1.63;;
37657;SDS011;23500;53.268;8.308;2022-10-16T16:12:35;4.32;;;1.75;;
37657;SDS011;23500;53.268;8.308;2022-10-16T16:15:02;2.70;;;1.40;;
37657;SDS011;23500;53.268;8.308;2022-10-16T16:17:33;3.50;;;1.60;;
37657;SDS011;23500;53.268;8.308;2022-10-16T16:19:59;3.80;;;1.63;;
37657;SDS011;23500;53.268;8.308;2022-10-16T16:22:26;2.92;;;1.67;;
37657;SDS011;23500;53.268;8.308;2022-10-16T16:24:52;3.13;;;1.40;;
37657;SDS011;23500;53.268;8.308;2022-10-16T16:27:18;4.47;;;1.75;;
37657;SDS011;23500;53.268;8.308;2022-10-16T16:29:44;2.85;;;1.70;;
37657;SDS011;23500;53.268;8.308;2022-10-16T16:32:11;3.30;;;1.60;;
37657;SDS011;23500;53.268;8.308;2022-10-16T16:34:37;3.15;;;1.55;;
37657;SDS011;23500;53.268;8.308;2022-10-16T16:37:03;3.15;;;1.70;;
37657;SDS011;23500;53.268;8.308;2022-10-16T16:39:28;3.55;;;2.03;;
37657;SDS011;23500;53.268;8.308;2022-10-16T16:41:57;2.75;;;1.70;;
37657;SDS011;23500;53.268;8.308;2022-10-16T16:44:27;3.60;;;1.75;;
37657;SDS011;23500;53.268;8.308;2022-10-16T16:46:53;3.70;;;1.90;;
37657;SDS011;23500;53.268;8.308;2022-10-16T16:49:19;5.82;;;1.90;;
37657;SDS011;23500;53.268;8.308;2022-10-16T16:51:45;3.38;;;2.00;;